sensor_id;sensor_type;location;lat;lon;timestamp;P1;durP1;ratioP1;P2;durP2;ratioP2
12320;SDS011;6225;52.720;8.276;2022-07-30T00:01:38;4.40;;;3.10;;
12320;SDS011;6225;52.720;8.276;2022-07-30T00:04:22;5.00;;;3.63;;
12320;SDS011;6225;52.720;8.276;2022-07-30T00:07:07;4.47;;;3.80;;
12320;SDS011;6225;52.720;8.276;2022-07-30T00:09:51;5.53;;;3.80;;
12320;SDS011;6225;52.720;8.276;2022-07-30T00:12:36;4.30;;;3.73;;
12320;SDS011;6225;52.720;8.276;2022-07-30T00:15:22;7.13;;;4.03;;
12320;SDS011;6225;52.720;8.276;2022-07-30T00:18:06;8.13;;;3.77;;
12320;SDS011;6225;52.720;8.276;2022-07-30T00:20:50;5.13;;;3.40;;
12320;SDS011;6225;52.720;8.276;2022-07-30T00:23:34;4.80;;;3.53;;
12320;SDS011;6225;52.720;8.276;2022-07-30T00:26:18;7.10;;;4.50;;
12320;SDS011;6225;52.720;8.276;2022-07-30T00:29:03;6.23;;;4.57;;
12320;SDS011;6225;52.720;8.276;2022-07-30T00:31:48;4.77;;;3.43;;
12320;SDS011;6225;52.720;8.276;2022-07-30T00:34:31;8.97;;;4.13;;
12320;SDS011;6225;52.720;8.276;2022-07-30T00:37:15;7.17;;;4.60;;
12320;SDS011;6225;52.720;8.276;2022-07-30T00:39:59;6.97;;;4.60;;
12320;SDS011;6225;52.720;8.276;2022-07-30T00:42:44;5.13;;;4.53;;
12320;SDS011;6225;52.720;8.276;2022-07-30T00:45:30;6.53;;;4.43;;
12320;SDS011;6225;52.720;8.276;2022-07-30T00:48:14;6.70;;;4.57;;
12320;SDS011;6225;52.720;8.276;2022-07-30T00:50:58;6.00;;;4.50;;
12320;SDS011;6225;52.720;8.276;2022-07-30T00:53:42;5.00;;;4.43;;
12320;SDS011;6225;52.720;8.276;2022-07-30T00:56:26;8.17;;;5.30;;
12320;SDS011;6225;52.720;8.276;2022-07-30T00:59:10;8.17;;;4.97;;
12320;SDS011;6225;52.720;8.276;2022-07-30T01:01:55;5.30;;;4.60;;
12320;SDS011;6225;52.720;8.276;2022-07-30T01:04:38;7.97;;;4.83;;
12320;SDS011;6225;52.720;8.276;2022-07-30T01:07:23;5.13;;;4.50;;
12320;SDS011;6225;52.720;8.276;2022-07-30T01:10:08;6.87;;;5.13;;
12320;SDS011;6225;52.720;8.276;2022-07-30T01:12:54;13.73;;;5.33;;
12320;SDS011;6225;52.720;8.276;2022-07-30T01:15:41;7.40;;;4.90;;
12320;SDS011;6225;52.720;8.276;2022-07-30T01:18:26;9.43;;;5.03;;
12320;SDS011;6225;52.720;8.276;2022-07-30T01:21:37;6.70;;;4.90;;
12320;SDS011;6225;52.720;8.276;2022-07-30T01:24:32;7.60;;;5.80;;
12320;SDS011;6225;52.720;8.276;2022-07-30T01:27:20;5.10;;;4.60;;
12320;SDS011;6225;52.720;8.276;2022-07-30T01:30:06;6.97;;;5.40;;
12320;SDS011;6225;52.720;8.276;2022-07-30T01:32:52;7.83;;;5.63;;
12320;SDS011;6225;52.720;8.276;2022-07-30T01:35:37;6.67;;;5.93;;
12320;SDS011;6225;52.720;8.276;2022-07-30T01:38:24;10.90;;;5.20;;
12320;SDS011;6225;52.720;8.276;2022-07-30T01:41:11;6.97;;;5.23;;
12320;SDS011;6225;52.720;8.276;2022-07-30T01:43:57;6.33;;;5.73;;
12320;SDS011;6225;52.720;8.276;2022-07-30T01:46:42;6.40;;;5.80;;
12320;SDS011;6225;52.720;8.276;2022-07-30T01:49:27;6.73;;;5.70;;
12320;SDS011;6225;52.720;8.276;2022-07-30T01:52:13;7.37;;;6.60;;
12320;SDS011;6225;52.720;8.276;2022-07-30T01:54:59;7.10;;;6.40;;
12320;SDS011;6225;52.720;8.276;2022-07-30T01:57:45;9.23;;;6.47;;
12320;SDS011;6225;52.720;8.276;2022-07-30T02:00:32;7.50;;;6.17;;
12320;SDS011;6225;52.720;8.276;2022-07-30T02:03:20;7.07;;;6.00;;
12320;SDS011;6225;52.720;8.276;2022-07-30T02:06:25;6.47;;;5.87;;
12320;SDS011;6225;52.720;8.276;2022-07-30T02:09:20;6.60;;;5.90;;
12320;SDS011;6225;52.720;8.276;2022-07-30T02:12:09;9.37;;;6.80;;
12320;SDS011;6225;52.720;8.276;2022-07-30T02:15:23;10.30;;;6.70;;
12320;SDS011;6225;52.720;8.276;2022-07-30T02:21:22;10.20;;;6.70;;
12320;SDS011;6225;52.720;8.276;2022-07-30T02:24:10;7.90;;;6.53;;
12320;SDS011;6225;52.720;8.276;2022-07-30T02:27:01;7.37;;;6.63;;
12320;SDS011;6225;52.720;8.276;2022-07-30T02:29:49;7.60;;;6.90;;
12320;SDS011;6225;52.720;8.276;2022-07-30T02:32:37;7.73;;;6.80;;
12320;SDS011;6225;52.720;8.276;2022-07-30T02:35:25;6.50;;;5.90;;
12320;SDS011;6225;52.720;8.276;2022-07-30T02:38:11;7.23;;;6.50;;
12320;SDS011;6225;52.720;8.276;2022-07-30T02:40:56;8.17;;;6.23;;
12320;SDS011;6225;52.720;8.276;2022-07-30T02:43:43;10.23;;;6.80;;
12320;SDS011;6225;52.720;8.276;2022-07-30T02:46:28;7.63;;;6.33;;
12320;SDS011;6225;52.720;8.276;2022-07-30T02:49:15;8.33;;;6.30;;
12320;SDS011;6225;52.720;8.276;2022-07-30T02:52:02;7.90;;;6.40;;
12320;SDS011;6225;52.720;8.276;2022-07-30T02:54:47;6.80;;;6.10;;
12320;SDS011;6225;52.720;8.276;2022-07-30T02:57:33;7.80;;;6.63;;
12320;SDS011;6225;52.720;8.276;2022-07-30T03:00:20;9.67;;;7.13;;
12320;SDS011;6225;52.720;8.276;2022-07-30T03:03:06;15.87;;;9.03;;
12320;SDS011;6225;52.720;8.276;2022-07-30T03:05:53;10.87;;;7.20;;
12320;SDS011;6225;52.720;8.276;2022-07-30T03:08:38;8.37;;;7.27;;
12320;SDS011;6225;52.720;8.276;2022-07-30T03:11:24;7.80;;;6.83;;
12320;SDS011;6225;52.720;8.276;2022-07-30T03:14:10;9.53;;;6.97;;
12320;SDS011;6225;52.720;8.276;2022-07-30T03:16:55;7.90;;;7.10;;
12320;SDS011;6225;52.720;8.276;2022-07-30T03:19:42;9.73;;;7.47;;
12320;SDS011;6225;52.720;8.276;2022-07-30T03:22:30;9.60;;;7.30;;
12320;SDS011;6225;52.720;8.276;2022-07-30T03:25:21;8.93;;;8.00;;
12320;SDS011;6225;52.720;8.276;2022-07-30T03:28:06;8.40;;;7.50;;
12320;SDS011;6225;52.720;8.276;2022-07-30T03:30:51;10.80;;;8.07;;
12320;SDS011;6225;52.720;8.276;2022-07-30T03:33:36;8.00;;;7.03;;
12320;SDS011;6225;52.720;8.276;2022-07-30T03:36:21;8.27;;;7.30;;
12320;SDS011;6225;52.720;8.276;2022-07-30T03:39:06;8.37;;;7.50;;
12320;SDS011;6225;52.720;8.276;2022-07-30T03:41:51;9.47;;;7.87;;
12320;SDS011;6225;52.720;8.276;2022-07-30T03:44:37;9.13;;;7.40;;
12320;SDS011;6225;52.720;8.276;2022-07-30T03:47:22;8.83;;;7.40;;
12320;SDS011;6225;52.720;8.276;2022-07-30T03:50:07;8.40;;;7.23;;
12320;SDS011;6225;52.720;8.276;2022-07-30T03:52:52;12.03;;;7.77;;
12320;SDS011;6225;52.720;8.276;2022-07-30T03:55:37;7.33;;;6.63;;
12320;SDS011;6225;52.720;8.276;2022-07-30T03:58:22;10.13;;;7.70;;
12320;SDS011;6225;52.720;8.276;2022-07-30T04:01:06;8.10;;;6.43;;
12320;SDS011;6225;52.720;8.276;2022-07-30T04:03:50;13.33;;;7.67;;
12320;SDS011;6225;52.720;8.276;2022-07-30T04:06:35;9.07;;;7.57;;
12320;SDS011;6225;52.720;8.276;2022-07-30T04:09:25;8.27;;;7.37;;
12320;SDS011;6225;52.720;8.276;2022-07-30T04:12:09;10.43;;;7.73;;
12320;SDS011;6225;52.720;8.276;2022-07-30T04:14:56;11.47;;;8.07;;
12320;SDS011;6225;52.720;8.276;2022-07-30T04:17:42;10.43;;;8.20;;
12320;SDS011;6225;52.720;8.276;2022-07-30T04:20:30;9.43;;;8.10;;
12320;SDS011;6225;52.720;8.276;2022-07-30T04:23:19;13.17;;;8.23;;
12320;SDS011;6225;52.720;8.276;2022-07-30T04:26:05;9.77;;;7.50;;
12320;SDS011;6225;52.720;8.276;2022-07-30T04:28:49;9.07;;;8.07;;
12320;SDS011;6225;52.720;8.276;2022-07-30T04:31:34;11.23;;;8.60;;
12320;SDS011;6225;52.720;8.276;2022-07-30T04:34:18;12.87;;;8.53;;
12320;SDS011;6225;52.720;8.276;2022-07-30T04:37:03;10.82;;;9.77;;
12320;SDS011;6225;52.720;8.276;2022-07-30T04:39:47;9.37;;;8.17;;
12320;SDS011;6225;52.720;8.276;2022-07-30T04:42:34;12.63;;;8.33;;
12320;SDS011;6225;52.720;8.276;2022-07-30T04:45:18;12.03;;;8.27;;
12320;SDS011;6225;52.720;8.276;2022-07-30T04:48:05;10.30;;;8.67;;
12320;SDS011;6225;52.720;8.276;2022-07-30T04:50:50;10.83;;;9.17;;
12320;SDS011;6225;52.720;8.276;2022-07-30T04:53:40;10.03;;;9.07;;
12320;SDS011;6225;52.720;8.276;2022-07-30T04:56:25;12.17;;;10.27;;
12320;SDS011;6225;52.720;8.276;2022-07-30T04:59:11;12.20;;;10.27;;
12320;SDS011;6225;52.720;8.276;2022-07-30T05:01:56;14.90;;;10.70;;
12320;SDS011;6225;52.720;8.276;2022-07-30T05:04:41;15.13;;;11.10;;
12320;SDS011;6225;52.720;8.276;2022-07-30T05:07:27;13.13;;;11.77;;
12320;SDS011;6225;52.720;8.276;2022-07-30T05:10:12;12.07;;;10.90;;
12320;SDS011;6225;52.720;8.276;2022-07-30T05:12:57;17.50;;;12.30;;
12320;SDS011;6225;52.720;8.276;2022-07-30T05:15:41;14.03;;;11.90;;
12320;SDS011;6225;52.720;8.276;2022-07-30T05:18:29;15.90;;;12.70;;
12320;SDS011;6225;52.720;8.276;2022-07-30T05:21:13;16.00;;;12.93;;
12320;SDS011;6225;52.720;8.276;2022-07-30T05:23:57;21.90;;;13.93;;
12320;SDS011;6225;52.720;8.276;2022-07-30T05:26:41;18.73;;;14.30;;
12320;SDS011;6225;52.720;8.276;2022-07-30T05:29:26;17.20;;;15.13;;
12320;SDS011;6225;52.720;8.276;2022-07-30T05:32:10;19.17;;;16.50;;
12320;SDS011;6225;52.720;8.276;2022-07-30T05:34:54;19.20;;;16.63;;
12320;SDS011;6225;52.720;8.276;2022-07-30T05:37:41;24.87;;;17.90;;
12320;SDS011;6225;52.720;8.276;2022-07-30T05:40:25;19.23;;;17.17;;
12320;SDS011;6225;52.720;8.276;2022-07-30T05:43:09;24.30;;;21.90;;
12320;SDS011;6225;52.720;8.276;2022-07-30T05:45:53;21.53;;;19.40;;
12320;SDS011;6225;52.720;8.276;2022-07-30T05:48:37;22.80;;;18.50;;
12320;SDS011;6225;52.720;8.276;2022-07-30T05:51:21;21.33;;;18.63;;
12320;SDS011;6225;52.720;8.276;2022-07-30T05:54:06;21.33;;;19.13;;
12320;SDS011;6225;52.720;8.276;2022-07-30T05:56:50;20.03;;;18.07;;
12320;SDS011;6225;52.720;8.276;2022-07-30T05:59:35;21.03;;;18.83;;
12320;SDS011;6225;52.720;8.276;2022-07-30T06:02:19;21.13;;;18.87;;
12320;SDS011;6225;52.720;8.276;2022-07-30T06:05:04;20.60;;;18.53;;
12320;SDS011;6225;52.720;8.276;2022-07-30T06:07:49;20.77;;;17.93;;
12320;SDS011;6225;52.720;8.276;2022-07-30T06:10:33;24.67;;;17.83;;
12320;SDS011;6225;52.720;8.276;2022-07-30T06:13:17;21.67;;;18.37;;
12320;SDS011;6225;52.720;8.276;2022-07-30T06:16:02;23.77;;;18.53;;
12320;SDS011;6225;52.720;8.276;2022-07-30T06:18:46;19.37;;;17.13;;
12320;SDS011;6225;52.720;8.276;2022-07-30T06:21:30;23.17;;;17.83;;
12320;SDS011;6225;52.720;8.276;2022-07-30T06:24:14;20.10;;;17.57;;
12320;SDS011;6225;52.720;8.276;2022-07-30T06:26:58;23.87;;;17.53;;
12320;SDS011;6225;52.720;8.276;2022-07-30T06:29:43;24.33;;;18.17;;
12320;SDS011;6225;52.720;8.276;2022-07-30T06:32:27;21.63;;;17.50;;
12320;SDS011;6225;52.720;8.276;2022-07-30T06:35:11;18.73;;;16.00;;
12320;SDS011;6225;52.720;8.276;2022-07-30T06:37:55;21.77;;;15.30;;
12320;SDS011;6225;52.720;8.276;2022-07-30T06:40:39;20.63;;;15.73;;
12320;SDS011;6225;52.720;8.276;2022-07-30T06:43:23;16.33;;;13.93;;
12320;SDS011;6225;52.720;8.276;2022-07-30T06:46:07;16.90;;;15.20;;
12320;SDS011;6225;52.720;8.276;2022-07-30T06:48:51;19.07;;;13.77;;
12320;SDS011;6225;52.720;8.276;2022-07-30T06:51:35;19.43;;;14.43;;
12320;SDS011;6225;52.720;8.276;2022-07-30T06:54:20;16.27;;;13.83;;
12320;SDS011;6225;52.720;8.276;2022-07-30T06:57:04;19.53;;;14.37;;
12320;SDS011;6225;52.720;8.276;2022-07-30T06:59:48;16.70;;;13.97;;
12320;SDS011;6225;52.720;8.276;2022-07-30T07:02:32;23.90;;;14.13;;
12320;SDS011;6225;52.720;8.276;2022-07-30T07:05:19;19.27;;;14.03;;
12320;SDS011;6225;52.720;8.276;2022-07-30T07:08:05;15.43;;;13.30;;
12320;SDS011;6225;52.720;8.276;2022-07-30T07:10:49;19.03;;;15.17;;
12320;SDS011;6225;52.720;8.276;2022-07-30T07:13:33;19.67;;;15.33;;
12320;SDS011;6225;52.720;8.276;2022-07-30T07:16:17;15.90;;;13.30;;
12320;SDS011;6225;52.720;8.276;2022-07-30T07:19:04;18.57;;;13.73;;
12320;SDS011;6225;52.720;8.276;2022-07-30T07:21:48;18.63;;;13.57;;
12320;SDS011;6225;52.720;8.276;2022-07-30T07:24:32;17.97;;;13.63;;
12320;SDS011;6225;52.720;8.276;2022-07-30T07:27:16;17.20;;;13.43;;
12320;SDS011;6225;52.720;8.276;2022-07-30T07:30:00;16.60;;;12.93;;
12320;SDS011;6225;52.720;8.276;2022-07-30T07:32:44;17.53;;;13.57;;
12320;SDS011;6225;52.720;8.276;2022-07-30T07:35:29;14.40;;;12.47;;
12320;SDS011;6225;52.720;8.276;2022-07-30T07:38:13;15.60;;;12.93;;
12320;SDS011;6225;52.720;8.276;2022-07-30T07:40:57;16.07;;;13.13;;
12320;SDS011;6225;52.720;8.276;2022-07-30T07:43:41;14.27;;;12.43;;
12320;SDS011;6225;52.720;8.276;2022-07-30T07:46:25;17.42;;;12.13;;
12320;SDS011;6225;52.720;8.276;2022-07-30T07:49:09;17.85;;;12.15;;
12320;SDS011;6225;52.720;8.276;2022-07-30T07:51:53;14.55;;;12.07;;
12320;SDS011;6225;52.720;8.276;2022-07-30T07:54:37;18.90;;;11.13;;
12320;SDS011;6225;52.720;8.276;2022-07-30T07:57:21;11.48;;;10.38;;
12320;SDS011;6225;52.720;8.276;2022-07-30T08:00:06;13.13;;;9.75;;
12320;SDS011;6225;52.720;8.276;2022-07-30T08:02:52;14.60;;;11.05;;
12320;SDS011;6225;52.720;8.276;2022-07-30T08:05:36;14.10;;;9.35;;
12320;SDS011;6225;52.720;8.276;2022-07-30T08:08:20;13.45;;;9.60;;
12320;SDS011;6225;52.720;8.276;2022-07-30T08:11:05;12.82;;;10.23;;
12320;SDS011;6225;52.720;8.276;2022-07-30T08:13:49;16.05;;;9.40;;
12320;SDS011;6225;52.720;8.276;2022-07-30T08:16:34;12.35;;;9.02;;
12320;SDS011;6225;52.720;8.276;2022-07-30T08:19:18;12.90;;;8.43;;
12320;SDS011;6225;52.720;8.276;2022-07-30T08:22:02;11.60;;;8.52;;
12320;SDS011;6225;52.720;8.276;2022-07-30T08:24:46;10.80;;;8.05;;
12320;SDS011;6225;52.720;8.276;2022-07-30T08:27:30;10.73;;;8.43;;
12320;SDS011;6225;52.720;8.276;2022-07-30T08:30:14;13.90;;;7.88;;
12320;SDS011;6225;52.720;8.276;2022-07-30T08:32:58;9.02;;;7.45;;
12320;SDS011;6225;52.720;8.276;2022-07-30T08:35:42;15.77;;;8.38;;
12320;SDS011;6225;52.720;8.276;2022-07-30T08:38:26;15.15;;;7.60;;
12320;SDS011;6225;52.720;8.276;2022-07-30T08:41:10;8.80;;;7.53;;
12320;SDS011;6225;52.720;8.276;2022-07-30T08:43:54;10.57;;;8.05;;
12320;SDS011;6225;52.720;8.276;2022-07-30T08:46:45;11.25;;;7.70;;
12320;SDS011;6225;52.720;8.276;2022-07-30T08:49:30;11.05;;;8.35;;
12320;SDS011;6225;52.720;8.276;2022-07-30T08:52:14;8.52;;;6.18;;
12320;SDS011;6225;52.720;8.276;2022-07-30T08:54:59;8.95;;;7.50;;
12320;SDS011;6225;52.720;8.276;2022-07-30T08:57:43;9.73;;;6.82;;
12320;SDS011;6225;52.720;8.276;2022-07-30T09:00:28;13.40;;;7.03;;
12320;SDS011;6225;52.720;8.276;2022-07-30T09:03:14;12.82;;;7.25;;
12320;SDS011;6225;52.720;8.276;2022-07-30T09:05:59;11.52;;;7.20;;
12320;SDS011;6225;52.720;8.276;2022-07-30T09:08:44;12.90;;;7.88;;
12320;SDS011;6225;52.720;8.276;2022-07-30T09:11:28;13.05;;;7.20;;
12320;SDS011;6225;52.720;8.276;2022-07-30T09:14:16;12.93;;;7.60;;
12320;SDS011;6225;52.720;8.276;2022-07-30T09:17:00;10.25;;;6.90;;
12320;SDS011;6225;52.720;8.276;2022-07-30T09:20:00;7.18;;;5.88;;
12320;SDS011;6225;52.720;8.276;2022-07-30T09:22:47;9.30;;;6.13;;
12320;SDS011;6225;52.720;8.276;2022-07-30T09:25:38;9.95;;;6.43;;
12320;SDS011;6225;52.720;8.276;2022-07-30T09:28:28;7.22;;;5.53;;
12320;SDS011;6225;52.720;8.276;2022-07-30T09:31:14;9.05;;;6.10;;
12320;SDS011;6225;52.720;8.276;2022-07-30T09:33:59;12.63;;;5.90;;
12320;SDS011;6225;52.720;8.276;2022-07-30T09:36:43;9.57;;;5.72;;
12320;SDS011;6225;52.720;8.276;2022-07-30T09:39:35;9.13;;;5.25;;
12320;SDS011;6225;52.720;8.276;2022-07-30T09:42:24;11.52;;;5.88;;
12320;SDS011;6225;52.720;8.276;2022-07-30T09:45:11;12.77;;;5.00;;
12320;SDS011;6225;52.720;8.276;2022-07-30T09:47:57;7.38;;;4.40;;
12320;SDS011;6225;52.720;8.276;2022-07-30T09:50:46;10.65;;;4.70;;
12320;SDS011;6225;52.720;8.276;2022-07-30T09:53:32;12.13;;;4.32;;
12320;SDS011;6225;52.720;8.276;2022-07-30T09:56:24;9.60;;;4.60;;
12320;SDS011;6225;52.720;8.276;2022-07-30T09:59:28;9.38;;;4.70;;
12320;SDS011;6225;52.720;8.276;2022-07-30T10:02:13;7.28;;;4.20;;
12320;SDS011;6225;52.720;8.276;2022-07-30T10:05:11;8.60;;;4.57;;
12320;SDS011;6225;52.720;8.276;2022-07-30T10:07:58;5.57;;;3.28;;
12320;SDS011;6225;52.720;8.276;2022-07-30T10:10:45;9.07;;;3.80;;
12320;SDS011;6225;52.720;8.276;2022-07-30T10:13:31;8.02;;;3.10;;
12320;SDS011;6225;52.720;8.276;2022-07-30T10:16:16;11.77;;;3.72;;
12320;SDS011;6225;52.720;8.276;2022-07-30T10:19:00;5.47;;;3.03;;
12320;SDS011;6225;52.720;8.276;2022-07-30T10:21:45;5.85;;;3.38;;
12320;SDS011;6225;52.720;8.276;2022-07-30T10:24:32;3.33;;;3.03;;
12320;SDS011;6225;52.720;8.276;2022-07-30T10:27:19;7.32;;;3.42;;
12320;SDS011;6225;52.720;8.276;2022-07-30T10:30:05;6.22;;;2.80;;
12320;SDS011;6225;52.720;8.276;2022-07-30T10:32:49;5.35;;;2.88;;
12320;SDS011;6225;52.720;8.276;2022-07-30T10:35:35;6.47;;;3.25;;
12320;SDS011;6225;52.720;8.276;2022-07-30T10:38:21;5.60;;;3.00;;
12320;SDS011;6225;52.720;8.276;2022-07-30T10:47:24;3.92;;;2.42;;
12320;SDS011;6225;52.720;8.276;2022-07-30T10:50:13;7.18;;;2.67;;
12320;SDS011;6225;52.720;8.276;2022-07-30T10:53:02;9.00;;;2.88;;
12320;SDS011;6225;52.720;8.276;2022-07-30T10:55:46;3.45;;;2.42;;
12320;SDS011;6225;52.720;8.276;2022-07-30T10:58:55;4.25;;;2.53;;
12320;SDS011;6225;52.720;8.276;2022-07-30T11:04:30;9.32;;;2.63;;
12320;SDS011;6225;52.720;8.276;2022-07-30T11:10:05;7.00;;;2.38;;
12320;SDS011;6225;52.720;8.276;2022-07-30T11:12:53;6.53;;;2.40;;
12320;SDS011;6225;52.720;8.276;2022-07-30T11:15:56;4.78;;;2.20;;
12320;SDS011;6225;52.720;8.276;2022-07-30T11:19:00;3.85;;;2.40;;
12320;SDS011;6225;52.720;8.276;2022-07-30T11:28:04;7.00;;;2.28;;
12320;SDS011;6225;52.720;8.276;2022-07-30T11:30:48;4.93;;;1.90;;
12320;SDS011;6225;52.720;8.276;2022-07-30T11:33:34;4.05;;;2.30;;
12320;SDS011;6225;52.720;8.276;2022-07-30T11:36:19;5.90;;;2.60;;
12320;SDS011;6225;52.720;8.276;2022-07-30T11:39:03;3.00;;;2.15;;
12320;SDS011;6225;52.720;8.276;2022-07-30T11:42:22;2.85;;;2.00;;
12320;SDS011;6225;52.720;8.276;2022-07-30T11:48:00;3.75;;;2.17;;
12320;SDS011;6225;52.720;8.276;2022-07-30T11:50:53;3.65;;;2.28;;
12320;SDS011;6225;52.720;8.276;2022-07-30T11:53:38;4.32;;;2.30;;
12320;SDS011;6225;52.720;8.276;2022-07-30T11:56:22;3.13;;;2.35;;
12320;SDS011;6225;52.720;8.276;2022-07-30T11:59:06;4.60;;;2.47;;
12320;SDS011;6225;52.720;8.276;2022-07-30T12:01:53;2.83;;;2.30;;
12320;SDS011;6225;52.720;8.276;2022-07-30T12:04:42;4.47;;;2.08;;
12320;SDS011;6225;52.720;8.276;2022-07-30T12:07:26;4.90;;;2.40;;
12320;SDS011;6225;52.720;8.276;2022-07-30T12:10:11;6.65;;;2.30;;
12320;SDS011;6225;52.720;8.276;2022-07-30T12:13:12;2.72;;;2.03;;
12320;SDS011;6225;52.720;8.276;2022-07-30T12:15:58;4.82;;;2.00;;
12320;SDS011;6225;52.720;8.276;2022-07-30T12:18:43;2.60;;;1.85;;
12320;SDS011;6225;52.720;8.276;2022-07-30T12:21:29;10.55;;;2.13;;
12320;SDS011;6225;52.720;8.276;2022-07-30T12:24:14;2.20;;;1.98;;
12320;SDS011;6225;52.720;8.276;2022-07-30T12:27:04;2.40;;;1.88;;
12320;SDS011;6225;52.720;8.276;2022-07-30T12:29:49;5.32;;;1.90;;
12320;SDS011;6225;52.720;8.276;2022-07-30T12:32:33;6.28;;;1.80;;
12320;SDS011;6225;52.720;8.276;2022-07-30T12:35:18;5.28;;;2.10;;
12320;SDS011;6225;52.720;8.276;2022-07-30T12:38:03;4.60;;;1.98;;
12320;SDS011;6225;52.720;8.276;2022-07-30T12:40:51;3.13;;;2.08;;
12320;SDS011;6225;52.720;8.276;2022-07-30T12:46:35;3.67;;;2.20;;
12320;SDS011;6225;52.720;8.276;2022-07-30T12:49:30;2.75;;;2.15;;
12320;SDS011;6225;52.720;8.276;2022-07-30T12:52:28;4.43;;;2.05;;
12320;SDS011;6225;52.720;8.276;2022-07-30T12:55:13;5.13;;;1.70;;
12320;SDS011;6225;52.720;8.276;2022-07-30T12:58:02;4.85;;;2.15;;
12320;SDS011;6225;52.720;8.276;2022-07-30T13:00:49;5.30;;;1.90;;
12320;SDS011;6225;52.720;8.276;2022-07-30T13:03:35;3.60;;;1.75;;
12320;SDS011;6225;52.720;8.276;2022-07-30T13:06:23;9.63;;;2.30;;
12320;SDS011;6225;52.720;8.276;2022-07-30T13:09:17;3.53;;;2.08;;
12320;SDS011;6225;52.720;8.276;2022-07-30T13:12:03;3.13;;;2.20;;
12320;SDS011;6225;52.720;8.276;2022-07-30T13:14:48;2.50;;;1.85;;
12320;SDS011;6225;52.720;8.276;2022-07-30T13:17:33;2.70;;;2.25;;
12320;SDS011;6225;52.720;8.276;2022-07-30T13:20:17;4.60;;;1.90;;
12320;SDS011;6225;52.720;8.276;2022-07-30T13:23:01;6.30;;;1.90;;
12320;SDS011;6225;52.720;8.276;2022-07-30T13:25:45;8.20;;;2.42;;
12320;SDS011;6225;52.720;8.276;2022-07-30T13:28:29;2.65;;;1.90;;
12320;SDS011;6225;52.720;8.276;2022-07-30T13:31:14;4.30;;;2.10;;
12320;SDS011;6225;52.720;8.276;2022-07-30T13:33:58;3.25;;;1.95;;
12320;SDS011;6225;52.720;8.276;2022-07-30T13:36:42;6.75;;;1.92;;
12320;SDS011;6225;52.720;8.276;2022-07-30T13:39:26;2.88;;;1.70;;
12320;SDS011;6225;52.720;8.276;2022-07-30T13:42:10;2.22;;;2.00;;
12320;SDS011;6225;52.720;8.276;2022-07-30T13:44:54;8.85;;;2.08;;
12320;SDS011;6225;52.720;8.276;2022-07-30T13:47:38;4.93;;;2.40;;
12320;SDS011;6225;52.720;8.276;2022-07-30T13:50:22;4.03;;;2.10;;
12320;SDS011;6225;52.720;8.276;2022-07-30T13:53:07;7.70;;;2.10;;
12320;SDS011;6225;52.720;8.276;2022-07-30T13:55:51;2.78;;;2.30;;
12320;SDS011;6225;52.720;8.276;2022-07-30T13:58:35;3.90;;;2.40;;
12320;SDS011;6225;52.720;8.276;2022-07-30T14:01:20;4.15;;;2.28;;
12320;SDS011;6225;52.720;8.276;2022-07-30T14:04:04;3.80;;;2.17;;
12320;SDS011;6225;52.720;8.276;2022-07-30T14:06:48;5.97;;;1.90;;
12320;SDS011;6225;52.720;8.276;2022-07-30T14:09:32;3.67;;;2.13;;
12320;SDS011;6225;52.720;8.276;2022-07-30T14:12:16;3.53;;;2.17;;
12320;SDS011;6225;52.720;8.276;2022-07-30T14:15:00;6.00;;;2.22;;
12320;SDS011;6225;52.720;8.276;2022-07-30T14:17:44;4.05;;;1.90;;
12320;SDS011;6225;52.720;8.276;2022-07-30T14:20:28;2.20;;;2.00;;
12320;SDS011;6225;52.720;8.276;2022-07-30T14:23:14;3.28;;;2.08;;
12320;SDS011;6225;52.720;8.276;2022-07-30T14:25:58;5.00;;;1.83;;
12320;SDS011;6225;52.720;8.276;2022-07-30T14:28:43;6.07;;;1.80;;
12320;SDS011;6225;52.720;8.276;2022-07-30T14:31:27;4.25;;;1.70;;
12320;SDS011;6225;52.720;8.276;2022-07-30T14:34:11;5.38;;;2.00;;
12320;SDS011;6225;52.720;8.276;2022-07-30T14:36:55;5.85;;;2.10;;
12320;SDS011;6225;52.720;8.276;2022-07-30T14:39:39;5.50;;;1.80;;
12320;SDS011;6225;52.720;8.276;2022-07-30T14:42:24;4.72;;;2.13;;
12320;SDS011;6225;52.720;8.276;2022-07-30T14:45:08;4.30;;;2.35;;
12320;SDS011;6225;52.720;8.276;2022-07-30T14:47:53;2.13;;;1.90;;
12320;SDS011;6225;52.720;8.276;2022-07-30T14:50:37;3.20;;;2.00;;
12320;SDS011;6225;52.720;8.276;2022-07-30T14:53:21;4.32;;;2.30;;
12320;SDS011;6225;52.720;8.276;2022-07-30T14:56:05;5.20;;;2.40;;
12320;SDS011;6225;52.720;8.276;2022-07-30T14:58:50;6.15;;;2.30;;
12320;SDS011;6225;52.720;8.276;2022-07-30T15:01:34;4.30;;;2.10;;
12320;SDS011;6225;52.720;8.276;2022-07-30T15:04:19;3.47;;;1.77;;
12320;SDS011;6225;52.720;8.276;2022-07-30T15:07:04;8.65;;;2.20;;
12320;SDS011;6225;52.720;8.276;2022-07-30T15:09:49;2.88;;;2.10;;
12320;SDS011;6225;52.720;8.276;2022-07-30T15:12:33;3.67;;;2.10;;
12320;SDS011;6225;52.720;8.276;2022-07-30T15:15:17;3.05;;;2.15;;
12320;SDS011;6225;52.720;8.276;2022-07-30T15:18:01;2.40;;;2.00;;
12320;SDS011;6225;52.720;8.276;2022-07-30T15:20:46;2.90;;;2.08;;
12320;SDS011;6225;52.720;8.276;2022-07-30T15:23:30;4.30;;;2.53;;
12320;SDS011;6225;52.720;8.276;2022-07-30T15:26:14;2.67;;;2.10;;
12320;SDS011;6225;52.720;8.276;2022-07-30T15:28:59;3.42;;;1.88;;
12320;SDS011;6225;52.720;8.276;2022-07-30T15:31:43;2.47;;;1.70;;
12320;SDS011;6225;52.720;8.276;2022-07-30T15:34:27;4.60;;;2.10;;
12320;SDS011;6225;52.720;8.276;2022-07-30T15:37:16;6.20;;;2.03;;
12320;SDS011;6225;52.720;8.276;2022-07-30T15:40:00;5.20;;;1.90;;
12320;SDS011;6225;52.720;8.276;2022-07-30T15:42:44;2.83;;;1.98;;
12320;SDS011;6225;52.720;8.276;2022-07-30T15:45:28;6.13;;;1.95;;
12320;SDS011;6225;52.720;8.276;2022-07-30T15:48:13;3.13;;;1.67;;
12320;SDS011;6225;52.720;8.276;2022-07-30T15:51:01;2.88;;;1.90;;
12320;SDS011;6225;52.720;8.276;2022-07-30T15:53:46;2.72;;;1.52;;
12320;SDS011;6225;52.720;8.276;2022-07-30T15:56:30;5.18;;;1.77;;
12320;SDS011;6225;52.720;8.276;2022-07-30T15:59:16;3.25;;;1.60;;
12320;SDS011;6225;52.720;8.276;2022-07-30T16:02:00;9.45;;;1.90;;
12320;SDS011;6225;52.720;8.276;2022-07-30T16:04:45;4.22;;;1.60;;
12320;SDS011;6225;52.720;8.276;2022-07-30T16:07:29;3.33;;;1.83;;
12320;SDS011;6225;52.720;8.276;2022-07-30T16:10:13;2.65;;;1.80;;
12320;SDS011;6225;52.720;8.276;2022-07-30T16:12:58;6.00;;;1.80;;
12320;SDS011;6225;52.720;8.276;2022-07-30T16:15:42;4.38;;;1.65;;
12320;SDS011;6225;52.720;8.276;2022-07-30T16:18:27;12.60;;;2.08;;
12320;SDS011;6225;52.720;8.276;2022-07-30T16:21:11;4.80;;;1.63;;
12320;SDS011;6225;52.720;8.276;2022-07-30T16:23:56;6.38;;;1.70;;
12320;SDS011;6225;52.720;8.276;2022-07-30T16:26:40;3.42;;;1.52;;
12320;SDS011;6225;52.720;8.276;2022-07-30T16:29:24;6.35;;;1.60;;
12320;SDS011;6225;52.720;8.276;2022-07-30T16:32:09;4.70;;;1.52;;
12320;SDS011;6225;52.720;8.276;2022-07-30T16:34:53;2.55;;;1.42;;
12320;SDS011;6225;52.720;8.276;2022-07-30T16:37:37;3.78;;;1.50;;
12320;SDS011;6225;52.720;8.276;2022-07-30T16:40:20;2.00;;;1.50;;
12320;SDS011;6225;52.720;8.276;2022-07-30T16:43:04;4.47;;;1.60;;
12320;SDS011;6225;52.720;8.276;2022-07-30T16:45:50;5.65;;;1.58;;
12320;SDS011;6225;52.720;8.276;2022-07-30T16:48:34;5.50;;;1.70;;
12320;SDS011;6225;52.720;8.276;2022-07-30T16:51:18;2.17;;;1.33;;
12320;SDS011;6225;52.720;8.276;2022-07-30T16:54:02;6.65;;;1.48;;
12320;SDS011;6225;52.720;8.276;2022-07-30T16:56:46;5.05;;;1.63;;
12320;SDS011;6225;52.720;8.276;2022-07-30T16:59:35;3.08;;;1.40;;
12320;SDS011;6225;52.720;8.276;2022-07-30T17:02:20;4.80;;;1.58;;
12320;SDS011;6225;52.720;8.276;2022-07-30T17:05:04;2.92;;;1.40;;
12320;SDS011;6225;52.720;8.276;2022-07-30T17:07:48;1.85;;;1.17;;
12320;SDS011;6225;52.720;8.276;2022-07-30T17:10:32;4.32;;;1.52;;
12320;SDS011;6225;52.720;8.276;2022-07-30T17:13:16;2.90;;;1.30;;
12320;SDS011;6225;52.720;8.276;2022-07-30T17:16:00;6.57;;;1.60;;